Time;durP1;ratioP1;P1;durP2;ratioP2;P2;SDS_P1;SDS_P2;PMS_P1;PMS_P2;Temp;Humidity;BMP_temperature;BMP_pressure;BME280_temperature;BME280_humidity;BME280_pressure;Samples;Min_cycle;Max_cycle;Signal;HPM_P1;HPM_P2
2023/12/09 07:24:40;;;;;;;29.58;12.52;;;;;;;;;;7590801;19;20378;-73
2023/12/09 07:27:13;;;;;;;48.28;17.55;;;;;;;;;;7602792;19;20518;-73
2023/12/09 07:29:46;;;;;;;51.30;19.98;;;;;;;;;;7586096;19;20026;-71
2023/12/09 07:32:20;;;;;;;;;;;;;;;;;;7606203;19;20018;-71
2023/12/09 07:34:53;;;;;;;52.35;18.60;;;;;;;;;;7612738;19;19919;-72
2023/12/09 07:37:29;;;;;;;55.97;19.05;;;;;;;;;;7617178;19;20106;-72
2023/12/09 07:40:04;;;;;;;;;;;;;;;;;;7615422;19;20166;-72
2023/12/09 07:42:37;;;;;;;49.40;18.88;;;;;;;;;;7609544;19;19914;-72
2023/12/09 07:45:10;;;;;;;50.77;19.40;;;;;;;;;;7610920;19;20558;-72
2023/12/09 07:47:43;;;;;;;54.05;20.83;;;;;;;;;;7596497;19;20101;-72
2023/12/09 07:50:17;;;;;;;47.27;19.33;;;;;;;;;;7605399;19;20350;-73
2023/12/09 08:02:48;;;;;;;49.10;19.48;;;;;;;;;;7555012;19;20865;-72
2023/12/09 08:05:21;;;;;;;44.35;18.70;;;;;;;;;;7606970;19;20594;-71
2023/12/09 08:07:54;;;;;;;49.13;21.13;;;;;;;;;;7595521;19;20648;-71
2023/12/09 08:10:26;;;;;;;36.40;18.00;;;;;;;;;;7595072;19;20097;-72
2023/12/09 08:12:59;;;;;;;45.38;18.75;;;;;;;;;;7603921;19;20025;-71
2023/12/09 08:15:32;;;;;;;45.87;19.47;;;;;;;;;;7598603;19;20018;-72
2023/12/09 08:18:05;;;;;;;46.03;20.63;;;;;;;;;;7611387;19;20037;-71
2023/12/09 08:20:38;;;;;;;49.53;21.92;;;;;;;;;;7592394;19;20022;-72
2023/12/09 08:23:11;;;;;;;40.83;16.73;;;;;;;;;;7593251;19;20022;-71
2023/12/09 08:25:43;;;;;;;61.22;21.52;;;;;;;;;;7598613;19;20051;-71
2023/12/09 08:28:16;;;;;;;47.30;20.10;;;;;;;;;;7601972;19;20891;-71
2023/12/09 08:30:50;;;;;;;37.75;16.25;;;;;;;;;;7598873;19;20014;-71
2023/12/09 08:33:23;;;;;;;38.33;15.70;;;;;;;;;;7590677;19;21735;-72
2023/12/09 08:35:56;;;;;;;35.65;16.17;;;;;;;;;;7562139;19;20022;-71
2023/12/09 08:38:29;;;;;;;38.27;15.53;;;;;;;;;;7545129;19;20025;-71
2023/12/09 08:41:02;;;;;;;35.97;17.77;;;;;;;;;;7556474;19;20036;-71
2023/12/09 08:43:36;;;;;;;39.97;18.58;;;;;;;;;;7549834;19;20014;-74
2023/12/09 08:46:09;;;;;;;28.88;15.15;;;;;;;;;;7564432;19;20011;-72
2023/12/09 08:48:42;;;;;;;34.00;16.63;;;;;;;;;;7564044;19;20019;-73
2023/12/09 08:51:15;;;;;;;30.33;13.77;;;;;;;;;;7541226;19;20010;-71
2023/12/09 08:53:48;;;;;;;28.43;13.97;;;;;;;;;;7526058;19;21034;-72
2023/12/09 08:56:21;;;;;;;35.50;15.17;;;;;;;;;;7540909;19;20379;-71
2023/12/09 08:58:53;;;;;;;35.23;16.03;;;;;;;;;;7560904;19;20018;-73
2023/12/09 09:01:26;;;;;;;32.10;13.63;;;;;;;;;;7562354;19;20010;-71
2023/12/09 09:03:59;;;;;;;28.42;12.45;;;;;;;;;;7577304;19;20522;-72
2023/12/09 09:06:32;;;;;;;22.88;11.20;;;;;;;;;;7570205;19;20025;-72
2023/12/09 09:09:04;;;;;;;36.38;14.63;;;;;;;;;;7584440;19;20015;-72
2023/12/09 09:11:37;;;;;;;33.95;13.35;;;;;;;;;;7570452;19;20049;-73
2023/12/09 09:14:10;;;;;;;21.20;10.82;;;;;;;;;;7575458;19;20931;-73
2023/12/09 09:16:43;;;;;;;21.80;11.02;;;;;;;;;;7573799;19;21036;-72
2023/12/09 09:19:15;;;;;;;30.65;12.60;;;;;;;;;;7575558;19;20543;-72
2023/12/09 09:21:48;;;;;;;31.30;12.45;;;;;;;;;;7549385;19;20022;-72
2023/12/09 09:24:21;;;;;;;22.97;11.53;;;;;;;;;;7569477;19;20027;-73
2023/12/09 09:26:53;;;;;;;23.13;10.60;;;;;;;;;;7573310;19;20396;-73
2023/12/09 09:29:26;;;;;;;21.60;10.87;;;;;;;;;;7569460;19;20023;-73
2023/12/09 09:31:59;;;;;;;22.10;10.05;;;;;;;;;;7572111;19;20032;-74
2023/12/09 09:34:31;;;;;;;25.02;10.38;;;;;;;;;;7552372;19;20010;-72
2023/12/09 09:37:04;;;;;;;21.65;10.43;;;;;;;;;;7572769;19;20015;-73
2023/12/09 09:39:37;;;;;;;20.38;8.13;;;;;;;;;;7566690;19;20841;-74
2023/12/09 09:42:19;;;;;;;18.40;8.20;;;;;;;;;;7560643;19;20011;-73
2023/12/09 16:12:47;;;;;;;20.77;11.93;;;;;;;;;;7614900;19;20924;-74
2023/12/09 16:15:20;;;;;;;17.57;10.70;;;;;;;;;;7606824;19;20014;-71
2023/12/09 16:17:54;;;;;;;18.77;11.50;;;;;;;;;;7583211;19;20762;-71
2023/12/09 16:20:27;;;;;;;21.60;12.40;;;;;;;;;;7569863;19;20024;-70
2023/12/09 16:23:00;;;;;;;20.55;11.57;;;;;;;;;;7593316;19;20030;-70
2023/12/09 16:25:32;;;;;;;22.15;13.07;;;;;;;;;;7612658;19;20018;-71
2023/12/09 16:28:05;;;;;;;22.23;12.07;;;;;;;;;;7602569;19;20073;-70
2023/12/09 16:30:39;;;;;;;23.95;12.70;;;;;;;;;;7594290;19;20282;-70
2023/12/09 16:33:12;;;;;;;;;;;;;;;;;;7609075;19;20026;-70
2023/12/09 16:35:45;;;;;;;22.40;11.70;;;;;;;;;;7591828;19;19932;-71
2023/12/09 16:38:18;;;;;;;22.92;13.25;;;;;;;;;;7554434;19;20022;-72
2023/12/09 16:40:51;;;;;;;19.98;12.27;;;;;;;;;;7587173;19;20014;-71
2023/12/09 16:43:24;;;;;;;25.02;13.63;;;;;;;;;;7620766;19;20477;-72
2023/12/09 16:45:57;;;;;;;21.75;12.27;;;;;;;;;;7631788;19;20094;-71
2023/12/09 16:48:30;;;;;;;17.85;11.20;;;;;;;;;;7628313;19;20864;-71
2023/12/09 16:51:03;;;;;;;20.20;12.23;;;;;;;;;;7632984;19;20049;-71
2023/12/09 16:53:36;;;;;;;18.35;11.82;;;;;;;;;;7624649;19;20105;-71
2023/12/09 16:56:08;;;;;;;21.38;11.20;;;;;;;;;;7623711;19;20093;-71
2023/12/09 16:58:41;;;;;;;17.63;10.30;;;;;;;;;;7623440;19;20018;-72
2023/12/09 17:01:14;;;;;;;18.60;11.48;;;;;;;;;;7633741;19;20897;-70
2023/12/09 17:03:47;;;;;;;20.10;12.05;;;;;;;;;;7636127;19;20348;-71
2023/12/09 17:06:21;;;;;;;18.10;10.50;;;;;;;;;;7619740;19;20007;-72
2023/12/09 17:08:54;;;;;;;19.13;11.13;;;;;;;;;;7631434;19;20018;-71
2023/12/09 17:11:27;;;;;;;21.40;12.35;;;;;;;;;;7623955;19;20339;-71
2023/12/09 17:13:59;;;;;;;24.47;13.10;;;;;;;;;;7635840;19;20385;-69
2023/12/09 17:16:33;;;;;;;31.77;17.13;;;;;;;;;;7621276;19;20294;-70
2023/12/09 17:19:06;;;;;;;30.23;15.53;;;;;;;;;;7629581;19;20640;-69
2023/12/09 17:21:39;;;;;;;24.77;13.63;;;;;;;;;;7629989;19;20014;-69
2023/12/09 17:24:11;;;;;;;19.00;12.07;;;;;;;;;;7603616;19;20018;-69
2023/12/09 17:26:44;;;;;;;18.70;11.17;;;;;;;;;;7597082;19;20015;-69
2023/12/09 17:29:17;;;;;;;17.23;10.98;;;;;;;;;;7605481;19;20046;-70
2023/12/09 17:31:49;;;;;;;19.65;11.10;;;;;;;;;;7599011;19;20030;-69
2023/12/09 17:34:22;;;;;;;16.13;10.80;;;;;;;;;;7593370;19;20023;-70
2023/12/09 17:36:55;;;;;;;21.07;12.63;;;;;;;;;;7599780;19;20015;-69
2023/12/09 17:39:29;;;;;;;27.90;15.45;;;;;;;;;;7600741;19;20440;-72
2023/12/09 17:42:02;;;;;;;31.23;17.87;;;;;;;;;;7600102;19;20019;-69
2023/12/09 17:44:35;;;;;;;28.23;15.65;;;;;;;;;;7597630;19;21294;-69
2023/12/09 17:47:08;;;;;;;27.90;15.98;;;;;;;;;;7605668;19;20542;-70
2023/12/09 17:49:40;;;;;;;22.98;13.52;;;;;;;;;;7596382;19;20980;-69
2023/12/09 17:52:14;;;;;;;22.00;13.97;;;;;;;;;;7600643;19;20357;-70
2023/12/09 17:54:47;;;;;;;;;;;;;;;;;;7595912;19;20278;-69
2023/12/09 17:57:19;;;;;;;24.50;13.50;;;;;;;;;;7601735;19;19922;-69
2023/12/09 17:59:54;;;;;;;22.03;13.00;;;;;;;;;;7599059;19;20019;-70
2023/12/09 18:02:26;;;;;;;23.55;13.98;;;;;;;;;;7589906;19;20033;-69
2023/12/09 18:04:59;;;;;;;25.17;13.73;;;;;;;;;;7590353;19;20052;-69
2023/12/09 18:07:32;;;;;;;20.00;12.75;;;;;;;;;;7599381;19;20713;-70
2023/12/09 18:10:06;;;;;;;22.77;14.07;;;;;;;;;;7603161;19;20014;-70
2023/12/09 18:12:39;;;;;;;24.27;13.98;;;;;;;;;;7587254;19;20736;-69
2023/12/09 18:15:12;;;;;;;24.10;13.83;;;;;;;;;;7602716;19;20092;-71
2023/12/09 18:17:45;;;;;;;27.60;16.10;;;;;;;;;;7604189;19;20956;-71
2023/12/09 18:20:18;;;;;;;27.80;14.85;;;;;;;;;;7603818;19;20010;-71
2023/12/09 18:22:55;;;;;;;24.83;15.05;;;;;;;;;;7594326;19;20522;-71
2023/12/09 18:25:31;;;;;;;30.85;15.48;;;;;;;;;;7599463;19;20015;-70
2023/12/09 18:28:04;;;;;;;26.75;13.90;;;;;;;;;;7601682;19;20022;-71
2023/12/09 18:30:37;;;;;;;23.90;13.53;;;;;;;;;;7598181;19;20019;-71
2023/12/09 18:33:10;;;;;;;24.38;13.80;;;;;;;;;;7596357;19;21298;-72
2023/12/09 18:35:43;;;;;;;23.83;13.90;;;;;;;;;;7587170;19;20029;-71
2023/12/09 18:38:16;;;;;;;24.77;14.85;;;;;;;;;;7603640;19;21089;-71
2023/12/09 18:40:49;;;;;;;27.80;15.75;;;;;;;;;;7594079;19;20085;-71
2023/12/09 18:43:22;;;;;;;;;;;;;;;;;;7608235;19;21467;-71
2023/12/09 18:45:54;;;;;;;26.25;15.20;;;;;;;;;;7583954;19;20009;-71
2023/12/09 18:48:29;;;;;;;28.15;15.70;;;;;;;;;;7597116;19;20015;-70
2023/12/09 18:51:03;;;;;;;26.85;17.33;;;;;;;;;;7602375;19;20042;-70
2023/12/09 18:53:36;;;;;;;27.65;16.58;;;;;;;;;;7586161;19;20011;-69
2023/12/09 18:56:09;;;;;;;32.47;17.80;;;;;;;;;;7597733;19;20018;-70
2023/12/09 18:58:42;;;;;;;;;;;;;;;;;;7575548;19;20006;-70
2023/12/09 19:01:15;;;;;;;28.63;16.25;;;;;;;;;;7603094;19;19930;-70
2023/12/09 19:03:48;;;;;;;28.52;16.33;;;;;;;;;;7601092;19;20014;-70
2023/12/09 19:06:21;;;;;;;36.03;18.92;;;;;;;;;;7605718;19;20022;-71
2023/12/09 19:08:54;;;;;;;34.67;19.80;;;;;;;;;;7597995;19;20027;-69
2023/12/09 19:11:26;;;;;;;33.10;19.52;;;;;;;;;;7603750;19;20018;-70
2023/12/09 19:13:59;;;;;;;56.38;28.38;;;;;;;;;;7591671;19;20022;-71
2023/12/09 19:16:32;;;;;;;43.45;22.95;;;;;;;;;;7602610;19;20701;-70
2023/12/09 19:19:04;;;;;;;34.10;19.15;;;;;;;;;;7599166;19;20026;-70
2023/12/09 19:21:39;;;;;;;38.15;21.33;;;;;;;;;;7587323;19;20805;-70
2023/12/09 19:24:13;;;;;;;57.80;24.35;;;;;;;;;;7587007;19;20634;-71
2023/12/09 19:26:46;;;;;;;36.92;18.77;;;;;;;;;;7596878;19;20597;-70
2023/12/09 19:29:18;;;;;;;38.28;19.17;;;;;;;;;;7601581;19;20026;-70
2023/12/09 19:31:52;;;;;;;27.00;16.30;;;;;;;;;;7596565;19;20014;-70
2023/12/09 19:34:25;;;;;;;40.15;21.27;;;;;;;;;;7595737;19;20616;-70
2023/12/09 19:36:58;;;;;;;37.33;19.88;;;;;;;;;;7599604;19;20017;-70
2023/12/09 19:39:30;;;;;;;35.10;19.13;;;;;;;;;;7597798;19;20109;-69
2023/12/09 19:42:04;;;;;;;32.90;17.27;;;;;;;;;;7580060;19;20315;-70
2023/12/09 19:44:37;;;;;;;33.88;17.15;;;;;;;;;;7587052;19;20107;-69
2023/12/09 19:47:09;;;;;;;29.90;16.03;;;;;;;;;;7594326;19;20056;-69
2023/12/09 19:49:42;;;;;;;30.23;16.53;;;;;;;;;;7601083;19;20019;-70
2023/12/09 19:52:15;;;;;;;35.25;18.80;;;;;;;;;;7594274;19;20023;-70
2023/12/09 19:54:48;;;;;;;32.93;19.07;;;;;;;;;;7596175;19;20018;-70
2023/12/09 19:57:21;;;;;;;28.87;16.77;;;;;;;;;;7592758;19;20015;-70
2023/12/09 19:59:53;;;;;;;30.63;18.30;;;;;;;;;;7587568;19;20018;-70
2023/12/09 20:02:26;;;;;;;30.45;18.23;;;;;;;;;;7596551;19;20025;-70
2023/12/09 20:05:00;;;;;;;30.10;16.73;;;;;;;;;;7583154;19;20048;-71
2023/12/09 20:07:33;;;;;;;28.27;16.23;;;;;;;;;;7600116;19;22332;-73
2023/12/09 20:10:06;;;;;;;36.78;18.73;;;;;;;;;;7595638;19;20085;-72
2023/12/09 20:12:40;;;;;;;35.72;19.13;;;;;;;;;;7591667;19;20164;-72
2023/12/09 20:15:12;;;;;;;33.05;17.60;;;;;;;;;;7599700;19;20018;-72
2023/12/09 20:17:45;;;;;;;35.38;18.10;;;;;;;;;;7593201;19;20014;-71
2023/12/09 20:20:19;;;;;;;33.95;18.38;;;;;;;;;;7596326;19;20019;-71
2023/12/09 20:22:53;;;;;;;35.88;18.90;;;;;;;;;;7596273;19;20015;-69
2023/12/09 20:25:25;;;;;;;34.40;19.00;;;;;;;;;;7600518;19;20015;-71
2023/12/09 20:27:58;;;;;;;35.03;18.17;;;;;;;;;;7583994;19;20022;-69
2023/12/09 20:30:31;;;;;;;37.13;19.60;;;;;;;;;;7592063;19;20017;-71
2023/12/09 20:33:04;;;;;;;38.40;20.53;;;;;;;;;;7593970;19;20025;-70
2023/12/09 20:35:36;;;;;;;40.95;21.63;;;;;;;;;;7576323;19;20022;-70
2023/12/09 20:38:11;;;;;;;37.95;20.48;;;;;;;;;;7586622;19;21243;-70
2023/12/09 20:40:44;;;;;;;36.90;19.92;;;;;;;;;;7593059;19;20025;-72
2023/12/09 20:43:17;;;;;;;31.23;18.33;;;;;;;;;;7588221;19;21039;-71
2023/12/09 20:45:50;;;;;;;28.10;16.42;;;;;;;;;;7590616;19;20134;-72
2023/12/09 20:48:23;;;;;;;32.97;18.17;;;;;;;;;;7596699;19;20783;-71
2023/12/09 20:50:56;;;;;;;38.53;19.67;;;;;;;;;;7595358;19;20034;-71
2023/12/09 20:53:29;;;;;;;27.75;15.40;;;;;;;;;;7584762;19;20038;-72
2023/12/09 20:56:03;;;;;;;34.45;17.55;;;;;;;;;;7597111;19;20018;-71
2023/12/09 20:58:35;;;;;;;27.85;16.98;;;;;;;;;;7589532;19;20113;-72
2023/12/09 21:01:09;;;;;;;30.90;17.48;;;;;;;;;;7587384;19;20018;-71
2023/12/09 21:03:42;;;;;;;31.23;18.52;;;;;;;;;;7598033;19;20116;-71
2023/12/09 21:06:15;;;;;;;26.80;16.42;;;;;;;;;;7609742;19;20011;-72
2023/12/09 21:08:47;;;;;;;32.63;19.50;;;;;;;;;;7592868;19;20547;-71
2023/12/09 21:11:21;;;;;;;33.40;18.30;;;;;;;;;;7583737;19;20090;-70
2023/12/09 21:13:54;;;;;;;26.77;16.33;;;;;;;;;;7594480;19;20072;-71
2023/12/09 21:16:26;;;;;;;33.42;18.30;;;;;;;;;;7603356;19;20026;-69
2023/12/09 21:18:59;;;;;;;28.10;16.83;;;;;;;;;;7572826;19;20023;-70
2023/12/09 21:21:33;;;;;;;33.25;18.20;;;;;;;;;;7576303;19;25326;-70
2023/12/09 21:24:06;;;;;;;30.45;18.17;;;;;;;;;;7585778;19;21168;-69
2023/12/09 21:26:39;;;;;;;;;;;;;;;;;;7576015;19;20624;-70
2023/12/09 21:29:12;;;;;;;35.30;19.92;;;;;;;;;;7592547;19;19926;-69
2023/12/09 21:31:44;;;;;;;45.00;24.93;;;;;;;;;;7602064;19;21035;-69
2023/12/09 21:34:17;;;;;;;33.50;20.07;;;;;;;;;;7598572;19;20021;-71
2023/12/09 21:36:51;;;;;;;32.58;19.52;;;;;;;;;;7578882;19;20019;-72
2023/12/09 21:39:24;;;;;;;45.10;22.57;;;;;;;;;;7601348;19;20642;-68
2023/12/09 21:41:56;;;;;;;34.00;21.20;;;;;;;;;;7584986;19;21007;-69
2023/12/09 21:44:29;;;;;;;35.37;22.33;;;;;;;;;;7596635;19;20392;-69
2023/12/09 21:47:02;;;;;;;32.53;17.98;;;;;;;;;;7600979;19;20014;-70
2023/12/09 21:49:35;;;;;;;24.98;13.98;;;;;;;;;;7599336;19;20023;-71
2023/12/09 21:52:08;;;;;;;;;;;;;;;;;;7591980;19;20018;-70
2023/12/09 21:54:41;;;;;;;27.98;15.18;;;;;;;;;;7591510;19;20606;-71
2023/12/09 21:57:14;;;;;;;24.37;13.33;;;;;;;;;;7590033;19;20015;-71
2023/12/09 21:59:48;;;;;;;23.67;11.32;;;;;;;;;;7598342;19;20276;-71
2023/12/09 22:02:20;;;;;;;24.27;13.23;;;;;;;;;;7589685;19;26603;-70
2023/12/09 22:04:54;;;;;;;22.55;11.70;;;;;;;;;;7593985;19;20016;-70
2023/12/09 22:07:27;;;;;;;26.80;12.27;;;;;;;;;;7596833;19;20105;-70
2023/12/09 22:10:00;;;;;;;22.13;9.80;;;;;;;;;;7585763;19;20023;-69
2023/12/09 22:12:33;;;;;;;18.70;9.00;;;;;;;;;;7599351;19;20022;-71
2023/12/09 22:15:08;;;;;;;14.82;7.70;;;;;;;;;;7550481;19;21795;-70
2023/12/09 22:17:41;;;;;;;8.55;5.32;;;;;;;;;;7552058;19;20026;-70
